D/T METAR WX W/DIR W/SPE G/SPE TEMP DEWP
25/02/20 14:50 EGYD 251450Z 25017KT 9999 FEW028CB 06/01 Q0994 TEMPO 7000 -SHRA SCT018 BKN028CB RMK BLU TEMPO WHT WSW (250°) 19.6mph 6°C 1°C
25/02/20 14:21 EGYD 251421Z 24017KT 9999 FEW028CB 08/02 Q0994 TEMPO 7000 -SHRA SCT018 BKN030CB RMK BLU TEMPO WHT WSW (240°) 19.6mph 8°C 2°C
25/02/20 13:50 EGYD 251350Z 25016KT 9999 FEW030CB 08/M00 Q0995 TEMPO 7000 -SHRA SCT018 BKN030CB RMK BLU TEMPO WHT WSW (250°) 18.4mph 8°C 0°C
25/02/20 13:21 EGYD 251321Z 26017KT 9999 FEW030CB BKN050 07/00 Q0995 TEMPO 7000 -SHRA SCT018 BKN030CB RMK BLU TEMPO WHT W (260°) 19.6mph 7°C 0°C
25/02/20 12:50 EGYD 251250Z 26018KT 9999 SCT035 SCT060 08/00 Q0996 TEMPO 7000 -SHRA SCT020 RMK BLU TEMPO WHT W (260°) 20.7mph 8°C 0°C
25/02/20 12:20 EGYD 251220Z 26022KT 9999 SCT040 SCT250 07/00 Q0996 NOSIG RMK BLU BLU W (260°) 25.3mph 7°C 0°C
25/02/20 11:50 EGYD 251150Z 26021KT 9999 BKN035 07/00 Q0996 NOSIG RMK BLU BLU W (260°) 24.2mph 7°C 0°C
25/02/20 11:20 EGYD 251120Z 26021KT 9999 FEW030 07/00 Q0996 NOSIG RMK BLU BLU W (260°) 24.2mph 7°C 0°C
25/02/20 10:50 EGYD 251050Z 27019KT 9999 FEW030 07/01 Q0997 NOSIG RMK BLU BLU W (270°) 21.9mph 7°C 1°C
25/02/20 10:19 EGYD 251019Z 26020KT 9999 FEW025 06/01 Q0997 NOSIG RMK BLU BLU W (260°) 23.0mph 6°C 1°C
25/02/20 09:50 EGYD 250950Z 27020KT 9999 FEW022 06/01 Q0997 TEMPO SCT020 RMK BLU TEMPO WHT W (270°) 23.0mph 6°C 1°C
25/02/20 09:20 EGYD 250920Z 26022KT 9999 FEW018 05/02 Q0997 W (260°) 25.3mph 5°C 2°C
25/02/20 08:50 EGYD 250850Z 26023KT 9999 FEW016 05/02 Q0997 TEMPO SCT016 RMK BLU TEMPO WHT W (260°) 26.5mph 5°C 2°C
25/02/20 08:21 EGYD 250821Z 26018KT 9999 FEW015 04/02 Q0998 TEMPO SCT015 RMK BLU TEMPO WHT W (260°) 20.7mph 4°C 2°C
25/02/20 07:50 EGYD 250750Z 26016KT 9999 SCT016 SCT030 04/01 Q0998 TEMPO FEW016 RMK WHT TEMPO BLU W (260°) 18.4mph 4°C 1°C
25/02/20 07:21 EGYD 250721Z 25017KT 9999 FEW030 03/01 Q0998 TEMPO SCT018 RMK BLU TEMPO WHT WSW (250°) 19.6mph 3°C 1°C
25/02/20 06:50 EGYD 250650Z 25018KT CAVOK 03/01 Q0998 TEMPO 7000 -SHRA SCT018 RMK BLU TEMPO WHT WSW (250°) 20.7mph 3°C 1°C
25/02/20 05:50 EGYD 250550Z AUTO 25014KT 9999 // NCD 03/01 Q0998 WSW (250°) 16.1mph 3°C 1°C
25/02/20 04:50 EGYD 250450Z AUTO 25015KT 9999 // NCD 03/01 Q0999 WSW (250°) 17.3mph 3°C 1°C
25/02/20 03:50 EGYD 250350Z AUTO 26015KT 9999 // NCD 03/00 Q1000 W (260°) 17.3mph 3°C 0°C
25/02/20 02:50 EGYD 250250Z AUTO 27016KT 9999 // NCD 04/01 Q1000 W (270°) 18.4mph 4°C 1°C
25/02/20 01:50 EGYD 250150Z AUTO 26018KT 9999 // NCD 04/01 Q1000 W (260°) 20.7mph 4°C 1°C
25/02/20 00:50 EGYD 250050Z AUTO 26020KT 9999 // NCD 04/01 Q1001 W (260°) 23.0mph 4°C 1°C
24/02/20 23:50 EGYD 242350Z AUTO 27022KT 9999 // NCD 05/01 Q1000 W (270°) 25.3mph 5°C 1°C
24/02/20 22:50 EGYD 242250Z AUTO 27020KT 9999 // NCD 06/01 Q1000 W (270°) 23.0mph 6°C 1°C
24/02/20 21:50 EGYD 242150Z AUTO 27023KT //// // NCD 06/01 Q1000 W (270°) 26.5mph 6°C 1°C
24/02/20 20:50 EGYD 242050Z AUTO 27022KT 9999 // NCD 07/01 Q1000 W (270°) 25.3mph 7°C 1°C
24/02/20 19:50 EGYD 241950Z AUTO 27023KT 9999 // NCD 07/01 Q1000 W (270°) 26.5mph 7°C 1°C
24/02/20 18:50 EGYD 241850Z AUTO 28025G39KT 9999 // FEW050/// 08/01 Q1000 W (280°) 28.8mph 44.9mph 8°C 1°C
24/02/20 17:50 EGYD 241750Z AUTO 28021G34KT 9999 // SCT029/// SCT045/// 10/05 Q0999 W (280°) 24.2mph 39.1mph 10°C 5°C
24/02/20 16:50 EGYD 241650Z 26030KT 9999 FEW030 BKN250 12/07 Q0997 RMK BLU W (260°) 34.5mph 12°C 7°C
24/02/20 15:50 EGYD 241550Z 25028KT 9999 FEW030 BKN250 13/08 Q0997 RMK BLU WSW (250°) 32.2mph 13°C 8°C
24/02/20 14:50 EGYD 241450Z 24027G37KT 9999 FEW022 SCT040 BKN250 13/10 Q0997 RMK BLU WSW (240°) 31.1mph 42.6mph 13°C 10°C
24/02/20 13:50 EGYD 241350Z 24029G39KT 9999 SCT030 SCT040 BKN250 12/09 Q0998 RMK BLU WSW (240°) 33.4mph 44.9mph 12°C 9°C
24/02/20 12:50 EGYD 241250Z 23030KT 9999 BKN015 BKN025 12/09 Q0998 RMK WHT SW (230°) 34.5mph 12°C 9°C
24/02/20 11:50 EGYD 241150Z 23027KT 9999 FEW013 BKN060 11/09 Q1000 BECMG BKN020 RMK BLU BECMG WHT SW (230°) 31.1mph 11°C 9°C
24/02/20 11:20 EGYD 241120Z 23026KT 9999 -RA SCT012 BKN060 10/09 Q1000 BECMG BKN020 RMK GRN BECMG WHT -RA SW (230°) 29.9mph 10°C 9°C
24/02/20 10:50 EGYD 241050Z 23026KT 9999 -RA SCT013 OVC050 10/09 Q1001 BECMG 9999 NSW BKN020 RMK GRN BECMG WHT -RA SW (230°) 29.9mph 10°C 9°C
24/02/20 10:20 EGYD 241020Z 22026KT 9999 -RA SCT011 SCT028 OVC050 10/09 Q1001 BECMG 9999 NSW BKN020 RMK GRN BECMG WHT -RA SW (220°) 29.9mph 10°C 9°C
24/02/20 09:50 EGYD 240950Z 22025KT 9000 -RA BKN011 OVC028 09/09 Q1002 TEMPO 6000 RA RMK GRN TEMPO GRN -RA SW (220°) 28.8mph 9°C 9°C
24/02/20 09:20 EGYD 240920Z 20015KT 9000 RA FEW005 BKN008 OVC015 08/08 Q1003 TEMPO 4000 SCT004 RMK GRN TEMPO YLO2 RA SSW (200°) 17.3mph 8°C 8°C
24/02/20 08:50 EGYD 240850Z 18017KT 9999 7000E RA BKN004 OVC010 06/06 Q1003 BECMG BKN010 RMK YLO2 BECMG GRN RA S (180°) 19.6mph 6°C 6°C
24/02/20 08:20 EGYD 240820Z 17012KT 7000 -RA FEW003 OVC004 05/05 Q1005 RERA BECMG BKN010 RMK YLO2 BECMG GRN -RA S (170°) 13.8mph 5°C 5°C
24/02/20 07:50 EGYD 240750Z 16015KT 6000 RA OVC003 04/04 Q1006 TEMPO 2000 BKN002 RMK YLO2 TEMPO AMB RA SSE (160°) 17.3mph 4°C 4°C
24/02/20 07:20 EGYD 240720Z 16019KT 5000 RA OVC003 04/04 Q1007 TEMPO 2000 BKN002 RMK YLO2 TEMPO AMB RA SSE (160°) 21.9mph 4°C 4°C
24/02/20 06:50 EGYD 240650Z 15023KT 6000 -RA OVC003 04/03 Q1008 TEMPO 2000 RA BKN002 RMK YLO2 TEMPO AMB -RA SSE (150°) 26.5mph 4°C 3°C
24/02/20 05:50 EGYD 240550Z AUTO 15022KT 4000 // BKN005/// SCT030/// 04/03 Q1011 SSE (150°) 25.3mph 4°C 3°C
24/02/20 04:50 EGYD 240450Z AUTO 15013KT 9999 // BKN034/// 04/01 Q1013 SSE (150°) 15.0mph 4°C 1°C